Time;durP1;ratioP1;P1;durP2;ratioP2;P2;SDS_P1;SDS_P2;PMS_P1;PMS_P2;Temp;Humidity;BMP_temperature;BMP_pressure;BME280_temperature;BME280_humidity;BME280_pressure;Samples;Min_cycle;Max_cycle;Signal;HPM_P1;HPM_P2
2022/11/18 00:00:50;;;;;;;2.80;0.83;;;;;;;7.07;65.41;98573.84;10132570;29;20220;-83
2022/11/18 00:06:14;;;;;;;2.80;0.87;;;;;;;7.13;65.04;98577.25;10132813;29;20233;-82
2022/11/18 00:17:18;;;;;;;5.03;0.97;;;;;;;7.22;64.79;98581.53;10123895;29;20288;-82
2022/11/18 00:22:40;;;;;;;2.07;0.77;;;;;;;7.02;65.46;98577.75;10129501;29;20232;-84
2022/11/18 00:28:02;;;;;;;2.10;0.60;;;;;;;6.94;65.82;98592.69;10115435;29;20292;-82
2022/11/18 00:33:24;;;;;;;2.83;0.97;;;;;;;7.06;66.32;98588.25;10112034;29;20526;-82
2022/11/18 00:38:46;;;;;;;2.47;0.80;;;;;;;6.70;66.80;98594.72;10118014;29;20253;-83
2022/11/18 00:44:08;;;;;;;1.97;1.00;;;;;;;7.15;65.42;98597.31;10127131;29;20228;-83
2022/11/18 00:49:31;;;;;;;4.70;1.10;;;;;;;7.23;65.16;98594.34;10110991;29;20244;-82
2022/11/18 00:54:53;;;;;;;4.87;1.00;;;;;;;7.16;65.17;98610.16;10101395;29;20634;-83
2022/11/18 01:00:17;;;;;;;4.47;0.97;;;;;;;7.76;64.04;98600.69;10094978;29;20237;-83
2022/11/18 01:05:40;;;;;;;4.30;1.00;;;;;;;7.08;66.46;98603.50;10086202;29;20209;-89
2022/11/18 01:16:43;;;;;;;4.83;1.03;;;;;;;7.49;64.84;98619.13;10132287;29;20215;-89
2022/11/18 01:22:05;;;;;;;3.80;1.10;;;;;;;7.63;64.06;98624.38;10132601;29;20205;-80
2022/11/18 01:27:27;;;;;;;3.40;1.10;;;;;;;7.36;65.33;98625.97;10128201;29;20688;-90
2022/11/18 01:32:49;;;;;;;3.23;0.80;;;;;;;7.48;65.22;98620.31;10141543;29;20547;-90
2022/11/18 01:38:13;;;;;;;1.87;1.00;;;;;;;7.25;66.03;98633.22;10141640;29;20217;-85
2022/11/18 01:43:52;;;;;;;1.63;1.00;;;;;;;7.55;64.14;98639.38;10131140;29;20202;-88
2022/11/18 01:49:14;;;;;;;4.40;0.97;;;;;;;7.30;65.50;98649.81;10143738;29;20237;-88
2022/11/18 01:54:39;;;;;;;3.33;1.17;;;;;;;7.32;65.54;98647.44;10143563;29;20221;-87
2022/11/18 02:00:04;;;;;;;4.60;0.67;;;;;;;7.58;64.41;98650.66;10138972;29;20201;-89
2022/11/18 02:05:27;;;;;;;1.43;0.80;;;;;;;7.91;63.80;98666.41;10145630;29;20567;-91
2022/11/18 02:10:50;;;;;;;2.20;1.07;;;;;;;7.84;65.27;98671.84;10128012;29;20193;-85
2022/11/18 02:16:19;;;;;;;3.43;1.53;;;;;;;7.40;68.25;98676.53;10136702;29;20455;-90
2022/11/18 02:21:50;;;;;;;3.23;0.93;;;;;;;7.41;68.48;98695.78;10124138;29;20202;-90
2022/11/18 02:27:50;;;;;;;1.53;0.87;;;;;;;7.29;68.95;98688.22;10140298;29;20193;-89
2022/11/18 02:33:17;;;;;;;2.30;0.90;;;;;;;7.00;70.23;98678.13;10146578;29;20196;-86
2022/11/18 02:38:43;;;;;;;1.70;0.50;;;;;;;7.53;69.33;98676.13;10123304;29;20225;-90
2022/11/18 02:44:12;;;;;;;1.97;0.80;;;;;;;7.39;70.22;98672.91;10106975;29;20213;-89
2022/11/18 02:49:42;;;;;;;1.43;0.50;;;;;;;7.32;70.06;98684.69;10124462;29;20241;-91
2022/11/18 02:55:08;;;;;;;2.00;0.60;;;;;;;7.71;68.86;98693.47;10120012;29;20315;-90
2022/11/18 03:00:31;;;;;;;4.23;0.67;;;;;;;7.41;69.18;98684.56;10133434;29;20205;-88
2022/11/18 03:06:08;;;;;;;3.57;0.67;;;;;;;7.36;69.34;98687.63;10129844;29;20226;-88
2022/11/18 03:12:00;;;;;;;2.13;0.57;;;;;;;7.13;69.76;98698.53;10146283;29;20205;-89
2022/11/18 03:17:43;;;;;;;3.13;0.70;;;;;;;7.01;69.19;98701.34;10118174;29;20530;-91
2022/11/18 03:23:25;;;;;;;5.60;0.80;;;;;;;6.98;69.82;98716.88;10140224;29;20669;-88
2022/11/18 03:29:14;;;;;;;2.33;1.00;;;;;;;7.32;69.09;98721.13;10119300;29;20200;-89
2022/11/18 03:34:46;;;;;;;3.53;0.80;;;;;;;6.61;72.48;98723.63;10144317;29;20245;-90
2022/11/18 03:40:17;;;;;;;3.93;1.10;;;;;;;7.16;70.76;98727.84;10136261;29;20201;-89
2022/11/18 03:45:48;;;;;;;4.33;1.20;;;;;;;7.26;70.37;98736.56;10121815;29;20221;-91
2022/11/18 03:51:16;;;;;;;2.93;1.30;;;;;;;6.89;72.31;98741.38;10127923;29;20209;-89
2022/11/18 03:56:46;;;;;;;1.90;0.87;;;;;;;6.74;72.62;98744.06;10141822;29;20209;-91
2022/11/18 04:02:19;;;;;;;3.23;1.07;;;;;;;7.08;71.24;98737.16;10133518;29;20201;-87
2022/11/18 04:07:52;;;;;;;3.10;1.23;;;;;;;7.09;71.20;98750.81;10140684;29;20365;-89
2022/11/18 04:13:21;;;;;;;6.67;1.73;;;;;;;7.41;70.51;98757.44;10114843;29;20205;-83
2022/11/18 04:18:43;;;;;;;5.57;1.80;;;;;;;7.14;70.63;98758.19;10109244;29;20261;-85
2022/11/18 04:24:06;;;;;;;8.83;1.70;;;;;;;7.06;70.50;98757.13;10119801;29;20233;-90
2022/11/18 04:29:30;;;;;;;7.80;1.67;;;;;;;7.27;69.92;98762.59;10129395;29;20539;-92
2022/11/18 04:34:52;;;;;;;7.40;2.33;;;;;;;7.18;70.27;98770.31;10120160;29;20560;-92
2022/11/18 04:40:14;;;;;;;11.07;2.93;;;;;;;7.07;70.53;98780.34;10126451;29;20189;-89
2022/11/18 04:45:36;;;;;;;10.30;3.23;;;;;;;6.75;71.57;98777.31;10117664;29;20221;-87
2022/11/18 04:51:03;;;;;;;10.23;2.83;;;;;;;6.96;71.36;98792.03;10117874;29;20279;-92
2022/11/18 04:56:27;;;;;;;4.80;1.70;;;;;;;7.09;70.02;98789.22;10129241;29;20209;-89
2022/11/18 05:01:49;;;;;;;6.07;1.27;;;;;;;7.14;70.79;98797.41;10139661;29;20197;-92
2022/11/18 05:07:14;;;;;;;7.80;2.00;;;;;;;7.53;69.31;98799.47;10138929;29;20261;-89
2022/11/18 05:12:51;;;;;;;5.33;2.20;;;;;;;7.76;69.26;98815.81;10137815;29;20260;-88
2022/11/18 05:18:13;;;;;;;6.00;2.30;;;;;;;7.39;69.90;98824.25;10123978;29;20522;-86
2022/11/18 05:23:35;;;;;;;4.83;2.00;;;;;;;7.57;67.79;98825.69;10139890;29;20205;-89
2022/11/18 05:28:59;;;;;;;6.47;1.50;;;;;;;7.22;70.44;98832.88;10111659;29;20209;-89
2022/11/18 05:34:21;;;;;;;4.73;1.90;;;;;;;7.38;69.47;98837.44;10140174;29;20205;-85
2022/11/18 05:39:45;;;;;;;7.50;2.30;;;;;;;7.21;70.69;98848.06;10133229;29;20212;-88
2022/11/18 05:45:08;;;;;;;6.17;1.90;;;;;;;7.08;71.93;98844.44;10138255;29;20186;-92
2022/11/18 05:50:31;;;;;;;7.00;2.10;;;;;;;7.31;71.08;98853.22;10140065;29;20233;-87
2022/11/18 05:56:09;;;;;;;4.63;2.27;;;;;;;7.26;71.63;98856.25;10136934;29;20268;-92
2022/11/18 06:01:31;;;;;;;4.43;1.83;;;;;;;7.08;71.38;98860.41;10129990;29;20197;-91
2022/11/18 06:07:03;;;;;;;4.63;1.87;;;;;;;7.82;69.36;98862.09;10139425;29;20288;-90
2022/11/18 06:12:37;;;;;;;4.70;1.83;;;;;;;7.71;69.70;98879.38;10138106;29;20622;-93
2022/11/18 06:18:09;;;;;;;5.33;1.80;;;;;;;7.42;71.37;98885.22;10108989;29;20224;-90
2022/11/18 06:23:36;;;;;;;5.17;2.03;;;;;;;7.35;71.17;98893.38;10139986;29;20205;-92
2022/11/18 06:28:58;;;;;;;4.93;1.60;;;;;;;7.53;70.68;98886.41;10128088;29;20490;-90
2022/11/18 06:34:21;;;;;;;6.50;2.27;;;;;;;7.56;70.36;98894.16;10117194;29;20213;-84
2022/11/18 06:39:46;;;;;;;5.87;1.83;;;;;;;7.36;70.64;98903.44;10164724;29;20209;-84
2022/11/18 06:45:10;;;;;;;6.00;1.87;;;;;;;7.14;71.75;98915.09;10146592;29;20226;-93
2022/11/18 06:50:32;;;;;;;4.07;2.17;;;;;;;7.17;71.43;98917.19;10143229;29;20265;-90
2022/11/18 06:55:55;;;;;;;3.47;1.77;;;;;;;7.57;69.78;98923.81;10135258;29;20230;-90
2022/11/18 07:01:20;;;;;;;5.97;1.67;;;;;;;7.76;69.46;98936.41;10127086;29;20233;-90
2022/11/18 07:06:42;;;;;;;6.73;3.77;;;;;;;7.71;69.72;98941.09;10137488;29;20221;-90
2022/11/18 07:12:04;;;;;;;7.47;3.00;;;;;;;7.75;69.39;98951.59;10136257;29;20213;-85
2022/11/18 07:17:29;;;;;;;6.60;2.87;;;;;;;7.70;69.43;98963.91;10124503;29;20308;-85
2022/11/18 07:22:52;;;;;;;11.03;2.50;;;;;;;7.73;69.24;98972.41;10138418;29;20257;-89
2022/11/18 07:28:16;;;;;;;7.60;2.57;;;;;;;7.72;69.89;98984.78;10147563;29;20244;-88
2022/11/18 07:33:40;;;;;;;5.73;2.60;;;;;;;7.54;70.33;99002.16;10106211;29;20578;-90
2022/11/18 07:39:05;;;;;;;6.47;2.97;;;;;;;7.63;69.63;98995.31;10141745;29;20205;-93
2022/11/18 07:44:27;;;;;;;9.47;3.00;;;;;;;7.82;68.79;98999.53;10113019;29;20480;-87
2022/11/18 07:49:49;;;;;;;6.70;3.43;;;;;;;7.68;68.82;99009.13;10154127;29;20324;-88
2022/11/18 07:55:11;;;;;;;7.97;3.80;;;;;;;7.73;69.02;99011.66;10120178;29;20911;-91
2022/11/18 08:00:33;;;;;;;6.73;3.33;;;;;;;7.68;69.55;99031.56;10122032;29;20237;-92
2022/11/18 08:05:59;;;;;;;6.47;3.50;;;;;;;7.70;70.18;99036.81;10121406;29;20213;-90
2022/11/18 08:11:23;;;;;;;7.60;3.30;;;;;;;7.57;71.01;99047.19;10134980;29;20197;-92
2022/11/18 08:16:45;;;;;;;6.67;4.00;;;;;;;7.71;69.96;99050.47;10145449;29;20626;-92
2022/11/18 08:22:07;;;;;;;6.57;3.43;;;;;;;7.58;70.44;99048.81;10114130;29;20498;-90
2022/11/18 08:27:30;;;;;;;8.77;4.10;;;;;;;8.14;69.08;99043.50;10114644;29;20236;-92
2022/11/18 08:32:53;;;;;;;8.07;3.90;;;;;;;8.13;68.70;99061.50;10142292;29;20657;-89
2022/11/18 08:38:16;;;;;;;7.53;4.40;;;;;;;8.18;69.03;99061.28;10128073;29;20233;-92
2022/11/18 08:43:38;;;;;;;6.50;4.13;;;;;;;8.25;67.97;99064.31;10134105;29;20205;-92
2022/11/18 08:49:00;;;;;;;7.30;3.93;;;;;;;7.91;68.51;99076.00;10152090;29;20236;-91
2022/11/18 08:54:23;;;;;;;8.47;3.43;;;;;;;8.12;67.56;99073.91;10142416;29;20320;-88
2022/11/18 08:59:45;;;;;;;6.13;3.20;;;;;;;8.05;67.75;99082.09;10142434;29;20259;-86
2022/11/18 09:05:07;;;;;;;4.63;2.83;;;;;;;8.04;66.90;99081.28;10106170;29;20288;-90
2022/11/18 09:10:29;;;;;;;5.67;3.10;;;;;;;7.94;67.87;99084.53;10120519;29;20276;-78
2022/11/18 09:15:51;;;;;;;7.50;3.70;;;;;;;8.15;68.47;99094.84;10121358;29;20296;-80
2022/11/18 09:21:14;;;;;;;7.93;3.63;;;;;;;8.32;67.63;99089.81;10139291;29;20201;-89
2022/11/18 09:26:36;;;;;;;13.40;4.07;;;;;;;8.66;65.76;99093.34;10150240;29;20252;-90
2022/11/18 09:32:02;;;;;;;6.27;3.33;;;;;;;8.64;67.55;99106.91;10109210;29;20327;-90
2022/11/18 09:37:24;;;;;;;5.30;2.80;;;;;;;8.79;65.39;99112.63;10143366;29;20625;-90
2022/11/18 09:43:02;;;;;;;5.57;3.87;;;;;;;8.21;68.14;99116.72;10161050;29;20214;-91
2022/11/18 09:54:19;;;;;;;5.63;3.23;;;;;;;7.97;68.16;99144.72;10146419;29;20193;-89
2022/11/18 09:59:42;;;;;;;3.60;2.93;;;;;;;7.82;68.45;99148.22;10136055;29;20225;-87
2022/11/18 10:05:20;;;;;;;4.60;2.83;;;;;;;8.20;66.63;99147.94;10126828;29;20236;-86
2022/11/18 10:11:03;;;;;;;5.50;2.97;;;;;;;7.86;67.59;99157.56;10136016;29;20237;-83
2022/11/18 10:16:48;;;;;;;10.90;2.90;;;;;;;8.36;66.76;99162.91;10110214;29;20284;-83
2022/11/18 10:22:25;;;;;;;5.73;3.57;;;;;;;8.36;67.06;99169.34;10130119;29;20240;-83
2022/11/18 10:27:49;;;;;;;6.23;3.10;;;;;;;8.37;65.79;99165.38;10127294;29;20260;-87
2022/11/18 10:33:24;;;;;;;8.20;3.30;;;;;;;8.64;65.38;99172.34;10124623;29;20212;-87
2022/11/18 10:38:47;;;;;;;4.60;3.20;;;;;;;8.53;65.69;99161.88;10134216;29;20229;-87
2022/11/18 10:44:30;;;;;;;4.63;2.90;;;;;;;9.21;62.92;99170.53;10139334;29;20245;-87
2022/11/18 10:49:55;;;;;;;4.67;3.10;;;;;;;8.70;64.34;99176.56;10131724;29;20287;-88
2022/11/18 10:55:20;;;;;;;3.77;2.60;;;;;;;8.18;65.58;99181.97;10149770;29;20479;-88
2022/11/18 11:00:47;;;;;;;3.67;2.80;;;;;;;8.00;66.34;99178.53;10140956;29;20226;-88
2022/11/18 11:06:14;;;;;;;3.10;2.27;;;;;;;8.22;64.08;99177.31;10129647;29;20189;-86
2022/11/18 11:11:57;;;;;;;5.17;2.57;;;;;;;8.78;62.47;99174.78;10143158;29;20296;-88
2022/11/18 11:17:38;;;;;;;6.70;2.30;;;;;;;8.76;62.74;99171.50;10128191;29;20291;-84
2022/11/18 11:23:00;;;;;;;3.77;2.10;;;;;;;9.50;59.86;99173.03;10123916;29;20258;-87
2022/11/18 11:28:28;;;;;;;4.17;2.50;;;;;;;8.69;62.26;99160.88;10121436;29;20205;-86
2022/11/18 11:34:02;;;;;;;4.97;1.90;;;;;;;9.04;61.82;99178.03;10129796;29;20269;-89
2022/11/18 11:39:43;;;;;;;7.03;2.00;;;;;;;8.53;62.21;99168.31;10152453;29;20218;-90
2022/11/18 11:45:06;;;;;;;5.23;1.73;;;;;;;8.99;61.67;99183.91;10137489;29;20201;-87
2022/11/18 11:50:57;;;;;;;4.30;1.70;;;;;;;9.48;60.48;99181.00;10148020;29;20228;-87
2022/11/18 11:56:29;;;;;;;4.00;1.50;;;;;;;9.48;60.37;99192.25;10139003;29;20248;-84
2022/11/18 12:01:54;;;;;;;3.47;1.90;;;;;;;9.60;60.90;99195.03;10139864;29;20228;-88
2022/11/18 12:07:32;;;;;;;7.27;2.23;;;;;;;9.48;60.23;99192.25;10115881;29;20530;-87
2022/11/18 12:13:16;;;;;;;3.40;1.77;;;;;;;9.43;58.47;99195.31;10140786;29;20201;-86
2022/11/18 12:19:00;;;;;;;5.53;2.07;;;;;;;9.05;60.09;99196.53;10135088;29;20292;-87
2022/11/18 12:24:24;;;;;;;4.83;2.03;;;;;;;9.24;58.59;99193.13;10140560;29;20275;-86
2022/11/18 12:29:49;;;;;;;5.67;2.13;;;;;;;9.72;57.60;99197.81;10122630;29;20221;-86
2022/11/18 12:35:11;;;;;;;2.77;1.53;;;;;;;10.64;55.93;99191.09;10140518;29;20208;-87
2022/11/18 12:40:34;;;;;;;10.20;1.63;;;;;;;10.24;56.12;99201.66;10134904;29;20248;-86
2022/11/18 12:45:59;;;;;;;7.83;1.63;;;;;;;9.28;58.03;99196.84;10136136;29;20233;-87
2022/11/18 12:51:24;;;;;;;3.93;1.40;;;;;;;9.35;56.80;99202.72;10112048;29;20208;-85
2022/11/18 12:56:47;;;;;;;2.67;1.50;;;;;;;9.94;54.95;99198.41;10140232;29;20288;-86
2022/11/18 13:02:09;;;;;;;8.37;2.20;;;;;;;9.93;55.86;99203.22;10128520;29;20234;-85
2022/11/18 13:13:32;;;;;;;4.50;1.00;;;;;;;9.39;56.27;99223.34;10125595;29;20262;-88
2022/11/18 13:18:55;;;;;;;3.97;1.03;;;;;;;9.63;56.05;99222.47;10129123;29;20225;-87
2022/11/18 13:24:20;;;;;;;8.33;1.50;;;;;;;9.63;55.39;99224.44;10123174;29;20225;-88
2022/11/18 13:29:55;;;;;;;4.10;0.97;;;;;;;9.97;54.57;99234.31;10140170;29;20197;-86
2022/11/18 13:35:19;;;;;;;4.60;1.27;;;;;;;9.53;55.89;99239.81;10125404;29;20204;-87
2022/11/18 13:41:05;;;;;;;8.30;1.77;;;;;;;9.25;57.17;99241.75;10145245;29;20310;-86
2022/11/18 13:46:28;;;;;;;6.30;1.57;;;;;;;9.82;55.18;99236.69;10139441;29;20236;-88
2022/11/18 13:51:51;;;;;;;6.10;1.63;;;;;;;9.99;54.83;99237.59;10128750;29;20208;-88
2022/11/18 13:57:18;;;;;;;9.17;1.90;;;;;;;9.55;56.44;99234.66;10142044;29;20217;-87
2022/11/18 14:02:45;;;;;;;5.97;1.23;;;;;;;9.06;58.01;99237.53;10127496;29;20522;-87
2022/11/18 14:08:24;;;;;;;5.63;1.07;;;;;;;9.81;54.34;99231.44;10136070;29;20193;-87
2022/11/18 14:13:48;;;;;;;8.17;1.60;;;;;;;9.81;55.75;99231.44;10141722;29;20205;-87
2022/11/18 14:19:30;;;;;;;11.40;2.50;;;;;;;9.59;55.40;99240.38;10136724;29;20678;-88
2022/11/18 14:24:53;;;;;;;7.67;2.03;;;;;;;9.62;54.67;99248.94;10141998;29;20204;-88
2022/11/18 14:30:29;;;;;;;14.40;2.83;;;;;;;9.55;54.93;99259.97;10146020;29;20244;-87
2022/11/18 14:36:07;;;;;;;4.60;1.63;;;;;;;9.17;56.02;99265.16;10139531;29;21207;-88
2022/11/18 14:41:47;;;;;;;7.97;2.23;;;;;;;9.33;56.28;99264.09;10130881;29;20602;-88
2022/11/18 14:47:30;;;;;;;9.37;2.00;;;;;;;9.38;55.58;99272.31;10135034;29;20225;-89
2022/11/18 14:52:53;;;;;;;13.90;4.23;;;;;;;9.19;56.54;99268.44;10138576;29;20689;-88
2022/11/18 14:58:15;;;;;;;10.60;3.60;;;;;;;9.18;57.50;99267.63;10119413;29;20287;-87
2022/11/18 15:03:38;;;;;;;9.47;3.37;;;;;;;9.35;58.64;99273.00;10131778;29;20284;-86
2022/11/18 15:09:01;;;;;;;10.03;3.30;;;;;;;9.39;58.63;99278.75;10133300;29;20544;-88
2022/11/18 15:14:23;;;;;;;12.40;5.83;;;;;;;8.95;60.85;99292.59;10121677;29;20229;-81
2022/11/18 15:19:46;;;;;;;9.20;3.73;;;;;;;9.25;61.15;99295.16;10128978;29;20253;-84
2022/11/18 15:25:09;;;;;;;9.50;3.27;;;;;;;9.18;61.59;99297.72;10105149;29;20614;-82
2022/11/18 15:30:31;;;;;;;9.13;3.13;;;;;;;8.81;61.88;99297.72;10137713;29;20617;-86
2022/11/18 15:35:55;;;;;;;8.37;2.77;;;;;;;8.66;61.47;99318.03;10107820;29;20241;-89
2022/11/18 15:41:20;;;;;;;7.97;2.67;;;;;;;8.65;61.59;99322.84;10125152;29;20713;-86
2022/11/18 15:46:46;;;;;;;4.77;2.53;;;;;;;8.49;60.52;99319.00;10121152;29;20239;-86
2022/11/18 15:52:09;;;;;;;4.17;2.07;;;;;;;8.70;59.99;99324.63;10111222;29;20233;-85
2022/11/18 15:57:32;;;;;;;8.13;2.70;;;;;;;8.72;59.25;99325.09;10097536;29;20603;-86
2022/11/18 16:03:03;;;;;;;11.80;3.63;;;;;;;8.65;59.78;99344.50;10123552;29;20256;-88
2022/11/18 16:08:26;;;;;;;9.43;2.93;;;;;;;8.68;60.34;99343.81;10111226;29;20677;-85
2022/11/18 16:13:48;;;;;;;8.27;2.40;;;;;;;8.42;61.47;99347.66;10118176;29;20261;-85
2022/11/18 16:19:12;;;;;;;6.63;2.77;;;;;;;8.66;61.82;99352.56;10099643;29;20328;-86
2022/11/18 16:24:34;;;;;;;19.00;12.13;;;;;;;8.25;63.53;99370.28;10116501;29;20234;-79
2022/11/18 16:29:57;;;;;;;16.80;14.03;;;;;;;8.50;62.84;99373.19;10092467;29;20291;-79
2022/11/18 16:35:19;;;;;;;12.03;10.73;;;;;;;7.58;62.94;99376.09;10100612;29;20504;-79
2022/11/18 16:40:41;;;;;;;7.87;7.07;;;;;;;7.76;59.38;99386.00;10091470;29;20587;-79
2022/11/18 16:46:03;;;;;;;6.97;5.67;;;;;;;7.24;58.87;99391.03;10107458;29;20297;-80
2022/11/18 16:51:27;;;;;;;9.10;6.87;;;;;;;7.46;59.44;99404.78;10087927;29;20233;-79
2022/11/18 16:56:50;;;;;;;9.93;6.13;;;;;;;7.14;60.90;99414.66;10108931;29;20297;-79
2022/11/18 17:02:13;;;;;;;5.70;5.07;;;;;;;7.66;58.88;99408.84;10089908;29;20240;-80
2022/11/18 17:07:35;;;;;;;5.27;4.83;;;;;;;7.39;59.35;99410.09;10132056;29;20229;-84
2022/11/18 17:12:57;;;;;;;5.87;4.80;;;;;;;7.50;58.50;99411.38;10131132;29;20768;-85
2022/11/18 17:18:19;;;;;;;6.03;4.00;;;;;;;6.84;59.56;99426.94;10119119;29;20252;-85
2022/11/18 17:23:41;;;;;;;5.57;5.00;;;;;;;6.71;62.45;99439.97;10130923;29;20603;-84
2022/11/18 17:29:03;;;;;;;7.67;5.60;;;;;;;6.89;63.99;99427.59;10090123;29;20558;-84
2022/11/18 17:34:25;;;;;;;10.40;6.93;;;;;;;7.34;64.29;99441.13;10106756;29;20289;-80
2022/11/18 17:39:48;;;;;;;8.03;7.23;;;;;;;7.13;66.09;99443.03;10105932;29;20257;-80
2022/11/18 17:45:10;;;;;;;9.67;8.07;;;;;;;6.74;68.40;99455.28;10107502;29;20201;-83
2022/11/18 17:50:32;;;;;;;9.03;8.13;;;;;;;6.89;67.94;99447.19;10111607;29;20252;-85
2022/11/18 17:55:54;;;;;;;9.53;8.33;;;;;;;6.65;69.35;99452.50;10132855;29;20236;-78
2022/11/18 18:01:17;;;;;;;9.10;6.87;;;;;;;7.29;66.63;99460.94;10103145;29;20272;-86
2022/11/18 18:06:40;;;;;;;10.37;8.07;;;;;;;6.35;68.67;99464.66;10083530;29;20318;-79
2022/11/18 18:14:11;;;;;;;8.67;6.87;;;;;;;6.83;66.73;99470.94;10105075;29;20657;-78
2022/11/18 18:17:46;;;;;;;8.40;6.70;;;;;;;6.81;67.16;99462.03;10136250;29;20292;-78
2022/11/18 18:23:08;;;;;;;7.83;6.93;;;;;;;6.53;68.71;99480.34;10106679;29;20291;-78
2022/11/18 18:28:30;;;;;;;5.07;4.50;;;;;;;6.69;68.15;99492.69;10120092;29;20228;-78
2022/11/18 18:33:53;;;;;;;4.47;4.00;;;;;;;6.16;68.09;99493.75;10128454;29;20288;-78
2022/11/18 18:39:15;;;;;;;3.60;3.10;;;;;;;6.18;67.81;99499.88;10114648;29;20278;-78
2022/11/18 18:50:18;;;;;;;4.93;4.07;;;;;;;6.00;67.87;99505.75;10136718;29;20615;-78
2022/11/18 18:55:41;;;;;;;4.57;4.17;;;;;;;5.35;69.13;99504.53;10134194;29;20228;-78
2022/11/18 19:01:09;;;;;;;6.00;5.17;;;;;;;5.84;66.38;99499.78;10117526;29;20260;-79
2022/11/18 19:06:36;;;;;;;7.00;5.90;;;;;;;4.98;68.45;99516.94;10120499;29;20258;-78
2022/11/18 19:17:39;;;;;;;6.67;5.47;;;;;;;5.55;67.43;99517.94;10135983;29;20237;-78
2022/11/18 19:23:05;;;;;;;6.73;5.63;;;;;;;5.12;68.41;99539.19;10116067;29;20236;-78
2022/11/18 19:28:27;;;;;;;13.00;10.87;;;;;;;5.29;67.45;99553.28;10116461;29;20220;-78
2022/11/18 19:33:49;;;;;;;15.97;11.77;;;;;;;5.11;68.31;99559.91;10131300;29;20201;-84
2022/11/18 19:39:11;;;;;;;8.27;7.17;;;;;;;4.65;67.88;99574.13;10117831;29;20256;-81
2022/11/18 19:44:34;;;;;;;7.17;4.50;;;;;;;4.77;67.28;99578.00;10127270;29;20289;-80
2022/11/18 19:49:56;;;;;;;5.10;4.60;;;;;;;4.31;68.41;99586.63;10129972;29;20265;-77
2022/11/18 19:55:18;;;;;;;6.23;5.17;;;;;;;4.42;68.72;99590.84;10098646;29;20324;-77
2022/11/18 20:00:40;;;;;;;5.73;4.47;;;;;;;4.05;69.48;99605.84;10129942;29;20260;-77
2022/11/18 20:06:03;;;;;;;4.90;3.93;;;;;;;4.45;68.12;99611.72;10108952;29;20237;-77
2022/11/18 20:11:25;;;;;;;4.43;3.83;;;;;;;4.05;67.94;99617.00;10129525;29;20233;-78
2022/11/18 20:16:48;;;;;;;4.33;3.73;;;;;;;4.39;66.62;99613.78;10136188;29;20228;-78
2022/11/18 20:22:11;;;;;;;7.37;4.67;;;;;;;3.93;67.24;99610.28;10127753;29;20260;-78
2022/11/18 20:27:33;;;;;;;4.97;4.40;;;;;;;4.30;66.82;99618.44;10110371;29;20607;-79
2022/11/18 20:32:58;;;;;;;3.63;3.10;;;;;;;2.90;69.28;99629.06;10133998;29;20236;-78
2022/11/18 20:38:20;;;;;;;2.97;2.60;;;;;;;3.74;65.38;99624.25;10129086;29;20253;-77
2022/11/18 20:43:43;;;;;;;4.33;3.10;;;;;;;3.31;68.83;99635.59;10140084;29;20232;-79
2022/11/18 20:49:05;;;;;;;3.10;2.80;;;;;;;4.13;65.63;99626.59;10084464;29;20266;-79
2022/11/18 20:54:27;;;;;;;2.97;2.67;;;;;;;3.87;65.04;99629.06;10075886;29;20229;-83
2022/11/18 20:59:49;;;;;;;2.87;1.90;;;;;;;3.51;66.67;99634.44;10077097;29;21001;-77
2022/11/18 21:05:11;;;;;;;2.47;2.27;;;;;;;3.31;65.53;99635.59;10068153;29;20286;-79
2022/11/18 21:10:34;;;;;;;3.40;3.00;;;;;;;3.71;64.51;99627.66;10056080;29;20309;-77
2022/11/18 21:15:56;;;;;;;3.00;1.90;;;;;;;3.60;66.55;99642.91;10061504;29;20611;-77
2022/11/18 21:27:01;;;;;;;1.63;1.53;;;;;;;3.56;64.21;99639.06;10069116;29;20262;-78
2022/11/18 21:32:23;;;;;;;1.60;1.50;;;;;;;2.78;65.00;99659.25;10059494;29;20267;-78
2022/11/18 21:37:45;;;;;;;1.93;1.60;;;;;;;2.77;66.27;99663.19;10077551;29;20305;-78
2022/11/18 21:43:07;;;;;;;3.10;1.90;;;;;;;3.54;64.41;99650.53;10073263;29;20237;-82
2022/11/18 21:48:29;;;;;;;1.50;1.40;;;;;;;3.38;63.43;99661.13;10104807;29;20268;-78
2022/11/18 21:53:52;;;;;;;1.60;1.40;;;;;;;3.58;63.10;99662.72;10135350;29;20209;-78
2022/11/18 21:59:14;;;;;;;1.80;1.13;;;;;;;3.30;63.84;99667.38;10117221;29;20229;-77
2022/11/18 22:04:51;;;;;;;1.97;1.60;;;;;;;2.97;64.71;99665.66;10116707;29;20500;-77
2022/11/18 22:10:15;;;;;;;2.07;1.70;;;;;;;2.87;63.80;99676.97;10116447;29;20201;-77
2022/11/18 22:15:37;;;;;;;1.37;1.23;;;;;;;3.53;62.69;99673.13;10120777;29;20598;-78
2022/11/18 22:21:01;;;;;;;1.77;1.30;;;;;;;3.28;63.07;99679.97;10134422;29;20252;-77
2022/11/18 22:26:23;;;;;;;1.87;1.43;;;;;;;3.36;61.59;99677.31;10135323;29;20237;-77
2022/11/18 22:31:45;;;;;;;2.30;1.10;;;;;;;3.12;63.24;99672.97;10134167;29;20610;-77
2022/11/18 22:37:07;;;;;;;1.27;1.03;;;;;;;2.70;62.69;99677.47;10115836;29;20265;-77
2022/11/18 22:42:47;;;;;;;1.77;1.57;;;;;;;2.95;63.95;99676.28;10132366;29;20641;-77
2022/11/18 22:48:09;;;;;;;1.63;1.30;;;;;;;3.04;62.52;99691.16;10120532;29;20327;-77
2022/11/18 22:53:32;;;;;;;1.20;1.10;;;;;;;2.72;62.34;99686.34;10114113;29;20209;-79
2022/11/18 22:58:54;;;;;;;1.43;1.33;;;;;;;3.15;60.52;99677.94;10118820;29;20248;-77
2022/11/18 23:04:16;;;;;;;1.20;1.10;;;;;;;2.96;60.19;99689.06;10139030;29;20637;-77
2022/11/18 23:09:38;;;;;;;1.40;1.30;;;;;;;2.48;62.18;99680.00;10131650;29;20237;-78
2022/11/18 23:15:00;;;;;;;1.80;1.60;;;;;;;2.01;62.41;99695.50;10142624;29;20209;-78
2022/11/18 23:20:22;;;;;;;1.87;1.40;;;;;;;2.15;63.86;99701.19;10133526;29;20261;-79
2022/11/18 23:25:44;;;;;;;3.27;2.10;;;;;;;2.26;62.32;99708.31;10136146;29;20264;-77
2022/11/18 23:31:09;;;;;;;3.07;2.00;;;;;;;1.97;61.96;99720.31;10141584;29;20273;-78
2022/11/18 23:36:31;;;;;;;2.73;2.33;;;;;;;1.97;61.28;99717.53;10129418;29;20265;-79
2022/11/18 23:41:53;;;;;;;3.67;3.03;;;;;;;2.12;62.70;99719.31;10132847;29;20301;-78
2022/11/18 23:47:15;;;;;;;3.23;2.70;;;;;;;2.26;60.68;99719.44;10131895;29;20264;-79
2022/11/18 23:52:40;;;;;;;3.63;3.33;;;;;;;2.26;61.27;99719.44;10131612;29;20205;-79
2022/11/18 23:58:02;;;;;;;3.37;3.00;;;;;;;1.57;62.08;99734.56;10132277;29;20208;-80
